Time;durP1;ratioP1;P1;durP2;ratioP2;P2;SDS_P1;SDS_P2;PMS_P1;PMS_P2;Temp;Humidity;BMP_temperature;BMP_pressure;BME280_temperature;BME280_humidity;BME280_pressure;Samples;Min_cycle;Max_cycle;Signal;HPM_P1;HPM_P2
2023/09/18 00:00:24;;;;;;;3.22;2.92;;;;;;;;;;5042640;28;20186;-72
2023/09/18 00:02:49;;;;;;;4.15;3.40;;;;;;;;;;5032463;28;20033;-72
2023/09/18 00:05:15;;;;;;;5.28;3.60;;;;;;;;;;5032576;28;20056;-72
2023/09/18 00:07:43;;;;;;;2.90;2.50;;;;;;;;;;5021855;28;20051;-71
2023/09/18 00:10:13;;;;;;;3.65;3.03;;;;;;;;;;5032686;28;20141;-71
2023/09/18 00:12:40;;;;;;;3.00;2.70;;;;;;;;;;5033131;28;20048;-71
2023/09/18 00:15:08;;;;;;;3.30;3.00;;;;;;;;;;5041634;28;20645;-71
2023/09/18 00:17:34;;;;;;;2.38;2.17;;;;;;;;;;5032800;28;20044;-71
2023/09/18 00:19:59;;;;;;;5.63;4.05;;;;;;;;;;5022756;28;20040;-70
2023/09/18 00:22:25;;;;;;;2.38;2.17;;;;;;;;;;5037313;28;20067;-70
2023/09/18 00:24:50;;;;;;;2.20;2.00;;;;;;;;;;5037414;28;20109;-71
2023/09/18 00:27:16;;;;;;;3.47;3.17;;;;;;;;;;5025197;28;20041;-70
2023/09/18 00:29:42;;;;;;;3.80;3.08;;;;;;;;;;5021392;28;20033;-70
2023/09/18 00:32:07;;;;;;;2.40;2.20;;;;;;;;;;5024394;28;20152;-70
2023/09/18 00:34:33;;;;;;;3.97;2.90;;;;;;;;;;5009361;28;20040;-70
2023/09/18 00:36:59;;;;;;;3.40;2.85;;;;;;;;;;5020775;28;20053;-70
2023/09/18 00:39:25;;;;;;;2.42;2.22;;;;;;;;;;5042821;28;20079;-70
2023/09/18 00:41:53;;;;;;;4.30;3.42;;;;;;;;;;5038866;28;20072;-70
2023/09/18 00:44:19;;;;;;;3.65;2.58;;;;;;;;;;5035902;28;20501;-70
2023/09/18 00:46:45;;;;;;;4.15;3.47;;;;;;;;;;5031299;28;20033;-70
2023/09/18 00:49:12;;;;;;;4.78;2.75;;;;;;;;;;5010447;28;20033;-70
2023/09/18 00:51:37;;;;;;;3.33;3.03;;;;;;;;;;5021946;28;20079;-70
2023/09/18 00:54:03;;;;;;;3.72;3.15;;;;;;;;;;5033341;28;20040;-71
2023/09/18 00:56:28;;;;;;;2.83;2.40;;;;;;;;;;5035614;28;20033;-70
2023/09/18 00:58:54;;;;;;;3.08;2.45;;;;;;;;;;5040996;28;20063;-70
2023/09/18 01:01:23;;;;;;;4.28;3.88;;;;;;;;;;5031271;28;20029;-70
2023/09/18 01:03:51;;;;;;;2.47;2.22;;;;;;;;;;5021544;28;20060;-71
2023/09/18 01:06:16;;;;;;;2.50;2.30;;;;;;;;;;5037984;28;20040;-70
2023/09/18 01:08:42;;;;;;;2.80;2.50;;;;;;;;;;5030416;28;20026;-71
2023/09/18 01:11:29;;;;;;;2.50;2.30;;;;;;;;;;5025612;28;20041;-70
2023/09/18 01:13:59;;;;;;;3.00;2.50;;;;;;;;;;5033320;28;20036;-71
2023/09/18 01:16:40;;;;;;;2.85;2.33;;;;;;;;;;5038326;28;20041;-70
2023/09/18 01:19:05;;;;;;;5.82;2.58;;;;;;;;;;5030527;28;20041;-70
2023/09/18 01:21:31;;;;;;;3.30;3.00;;;;;;;;;;5036523;28;20526;-70
2023/09/18 01:23:56;;;;;;;2.28;1.80;;;;;;;;;;5039040;28;20520;-70
2023/09/18 01:26:21;;;;;;;3.50;3.13;;;;;;;;;;5036253;28;20090;-71
2023/09/18 01:28:47;;;;;;;2.90;2.70;;;;;;;;;;5018221;28;20040;-71
2023/09/18 01:31:12;;;;;;;3.10;2.70;;;;;;;;;;5028385;28;20037;-71
2023/09/18 01:33:39;;;;;;;2.53;2.30;;;;;;;;;;5034737;28;20044;-70
2023/09/18 01:36:07;;;;;;;2.20;2.00;;;;;;;;;;5021078;28;20045;-70
2023/09/18 01:38:33;;;;;;;3.28;2.45;;;;;;;;;;5041603;28;20032;-70
2023/09/18 01:41:00;;;;;;;2.35;2.15;;;;;;;;;;5025428;28;20033;-70
2023/09/18 01:43:25;;;;;;;3.47;2.60;;;;;;;;;;5042689;28;20044;-71
2023/09/18 01:45:50;;;;;;;2.83;2.63;;;;;;;;;;5038569;28;20029;-70
2023/09/18 01:48:16;;;;;;;2.35;1.77;;;;;;;;;;5034318;28;20041;-70
2023/09/18 01:50:42;;;;;;;3.28;2.97;;;;;;;;;;5037081;28;20135;-70
2023/09/18 01:53:07;;;;;;;2.42;2.22;;;;;;;;;;5035619;28;20126;-70
2023/09/18 01:55:33;;;;;;;2.60;2.40;;;;;;;;;;5022093;28;20040;-70
2023/09/18 01:57:59;;;;;;;3.50;2.80;;;;;;;;;;5033439;28;20044;-70
2023/09/18 02:00:25;;;;;;;3.08;2.50;;;;;;;;;;5038792;28;20040;-70
2023/09/18 02:02:50;;;;;;;2.50;2.30;;;;;;;;;;5034067;28;20043;-70
2023/09/18 02:05:15;;;;;;;3.10;2.80;;;;;;;;;;5031719;28;20162;-70
2023/09/18 02:07:41;;;;;;;3.15;2.85;;;;;;;;;;5040521;28;20036;-70
2023/09/18 02:10:07;;;;;;;2.75;2.47;;;;;;;;;;5020569;28;20037;-71
2023/09/18 02:12:32;;;;;;;2.97;2.67;;;;;;;;;;5035110;28;20183;-70
2023/09/18 02:14:58;;;;;;;2.28;2.08;;;;;;;;;;5034660;28;20032;-70
2023/09/18 02:17:24;;;;;;;2.30;1.95;;;;;;;;;;5025752;28;20111;-70
2023/09/18 02:19:49;;;;;;;2.63;2.28;;;;;;;;;;5027182;28;20588;-71
2023/09/18 02:22:15;;;;;;;3.17;2.55;;;;;;;;;;5033595;28;20033;-70
2023/09/18 02:24:40;;;;;;;2.33;2.13;;;;;;;;;;5020578;28;20114;-70
2023/09/18 02:27:06;;;;;;;4.10;3.40;;;;;;;;;;5031333;28;20123;-70
2023/09/18 02:29:31;;;;;;;2.53;2.33;;;;;;;;;;5035781;28;20768;-70
2023/09/18 02:31:57;;;;;;;3.03;2.50;;;;;;;;;;5034241;28;20040;-71
2023/09/18 02:34:22;;;;;;;3.97;2.80;;;;;;;;;;5033591;28;20045;-70
2023/09/18 02:36:47;;;;;;;3.33;2.78;;;;;;;;;;5037112;28;20144;-71
2023/09/18 02:39:13;;;;;;;3.70;3.20;;;;;;;;;;5021806;28;20525;-71
2023/09/18 02:41:38;;;;;;;4.40;3.60;;;;;;;;;;5034152;28;20053;-70
2023/09/18 02:44:04;;;;;;;2.60;2.40;;;;;;;;;;5034118;28;20086;-70
2023/09/18 02:46:29;;;;;;;3.38;3.08;;;;;;;;;;5023662;28;20409;-70
2023/09/18 02:48:55;;;;;;;2.58;2.33;;;;;;;;;;5032476;28;20119;-70
2023/09/18 02:51:22;;;;;;;3.15;2.60;;;;;;;;;;5033328;28;20033;-71
2023/09/18 02:53:47;;;;;;;3.40;2.90;;;;;;;;;;5023977;28;20120;-71
2023/09/18 02:56:13;;;;;;;2.20;2.00;;;;;;;;;;5021664;28;20116;-71
2023/09/18 02:58:38;;;;;;;3.78;3.45;;;;;;;;;;5037118;28;20032;-70
2023/09/18 03:01:06;;;;;;;2.00;1.80;;;;;;;;;;5033674;28;20041;-71
2023/09/18 03:03:33;;;;;;;3.90;3.13;;;;;;;;;;5032814;28;20033;-71
2023/09/18 03:06:03;;;;;;;3.70;3.33;;;;;;;;;;5036550;28;20057;-70
2023/09/18 03:08:29;;;;;;;3.55;2.55;;;;;;;;;;5005867;28;20033;-71
2023/09/18 03:10:54;;;;;;;2.50;2.30;;;;;;;;;;5024866;28;20038;-71
2023/09/18 03:13:19;;;;;;;3.05;2.47;;;;;;;;;;5010950;28;20033;-70
2023/09/18 03:15:48;;;;;;;4.13;3.42;;;;;;;;;;5010318;28;20030;-71
2023/09/18 03:18:14;;;;;;;2.60;2.33;;;;;;;;;;4998595;28;20168;-70
2023/09/18 03:20:40;;;;;;;2.47;2.17;;;;;;;;;;5005195;28;20641;-71
2023/09/18 03:23:05;;;;;;;2.88;2.58;;;;;;;;;;5014077;28;20061;-71
2023/09/18 03:25:30;;;;;;;4.03;3.28;;;;;;;;;;5013523;28;20044;-71
2023/09/18 03:27:57;;;;;;;3.25;3.03;;;;;;;;;;5018000;28;20045;-70
2023/09/18 03:30:23;;;;;;;2.20;2.00;;;;;;;;;;5010797;28;20038;-70
2023/09/18 03:32:50;;;;;;;4.47;3.22;;;;;;;;;;5013265;28;20049;-70
2023/09/18 03:35:17;;;;;;;2.67;2.15;;;;;;;;;;5002077;28;20061;-70
2023/09/18 03:37:56;;;;;;;2.38;2.17;;;;;;;;;;5005977;28;20103;-70
2023/09/18 03:40:22;;;;;;;2.60;2.40;;;;;;;;;;5005874;28;20117;-70
2023/09/18 03:42:48;;;;;;;3.25;2.90;;;;;;;;;;5012580;28;20042;-70
2023/09/18 03:45:14;;;;;;;2.58;2.38;;;;;;;;;;5019611;28;20065;-70
2023/09/18 03:47:41;;;;;;;4.22;3.58;;;;;;;;;;5008388;28;20053;-71
2023/09/18 03:50:08;;;;;;;3.97;2.92;;;;;;;;;;5022341;28;20072;-71
2023/09/18 03:52:34;;;;;;;4.25;3.67;;;;;;;;;;5017839;28;20041;-71
2023/09/18 03:54:59;;;;;;;3.22;2.92;;;;;;;;;;5014866;28;20043;-71
2023/09/18 03:57:25;;;;;;;3.13;2.72;;;;;;;;;;5022785;28;20422;-70
2023/09/18 03:59:50;;;;;;;3.50;2.92;;;;;;;;;;5019409;28;20709;-71
2023/09/18 04:02:16;;;;;;;2.40;2.17;;;;;;;;;;5007408;28;20072;-71
2023/09/18 04:04:41;;;;;;;3.15;2.28;;;;;;;;;;5020602;28;20151;-71
2023/09/18 04:07:08;;;;;;;1.77;1.67;;;;;;;;;;5024303;28;20124;-70
2023/09/18 04:09:36;;;;;;;2.17;1.98;;;;;;;;;;5023340;28;20555;-71
2023/09/18 04:12:02;;;;;;;3.90;3.17;;;;;;;;;;5021304;28;20537;-71
2023/09/18 04:14:28;;;;;;;3.25;2.92;;;;;;;;;;5027457;28;20044;-71
2023/09/18 04:16:53;;;;;;;2.83;2.40;;;;;;;;;;5012090;28;20037;-71
2023/09/18 04:19:19;;;;;;;2.25;2.05;;;;;;;;;;5016915;28;20553;-70
2023/09/18 04:21:44;;;;;;;5.57;3.45;;;;;;;;;;5025279;28;20595;-70
2023/09/18 04:24:10;;;;;;;3.40;3.10;;;;;;;;;;5013750;28;20037;-70
2023/09/18 04:26:35;;;;;;;2.90;2.63;;;;;;;;;;5018142;28;20047;-71
2023/09/18 04:29:01;;;;;;;5.13;4.40;;;;;;;;;;5013778;28;20034;-71
2023/09/18 04:31:27;;;;;;;2.40;2.20;;;;;;;;;;5002721;28;20045;-70
2023/09/18 04:33:53;;;;;;;4.07;3.17;;;;;;;;;;5014808;28;20084;-69
2023/09/18 04:36:19;;;;;;;3.55;3.00;;;;;;;;;;5022940;28;20034;-69
2023/09/18 04:38:44;;;;;;;2.72;2.40;;;;;;;;;;5027808;28;20130;-71
2023/09/18 04:41:10;;;;;;;3.75;3.45;;;;;;;;;;5035622;28;20041;-70
2023/09/18 04:43:38;;;;;;;2.53;2.33;;;;;;;;;;5035951;28;20388;-71
2023/09/18 04:46:04;;;;;;;4.97;3.60;;;;;;;;;;5008136;28;20469;-70
2023/09/18 04:48:31;;;;;;;4.57;4.15;;;;;;;;;;5029467;28;20026;-70
2023/09/18 04:50:57;;;;;;;4.13;3.55;;;;;;;;;;5025740;28;20048;-69
2023/09/18 04:53:22;;;;;;;4.95;4.40;;;;;;;;;;5029126;28;20033;-70
2023/09/18 04:55:50;;;;;;;6.78;4.97;;;;;;;;;;5033375;28;20113;-70
2023/09/18 04:58:17;;;;;;;6.38;4.97;;;;;;;;;;5023701;28;20043;-70
2023/09/18 05:00:43;;;;;;;4.15;3.75;;;;;;;;;;5028844;28;20603;-70
2023/09/18 05:03:09;;;;;;;7.40;5.53;;;;;;;;;;5032299;28;20041;-70
2023/09/18 05:05:35;;;;;;;2.85;2.63;;;;;;;;;;5020900;28;20465;-71
2023/09/18 05:08:09;;;;;;;6.10;3.47;;;;;;;;;;5034290;28;20068;-72
2023/09/18 05:10:35;;;;;;;6.40;5.25;;;;;;;;;;5034858;28;20266;-71
2023/09/18 05:13:03;;;;;;;5.05;4.47;;;;;;;;;;5027885;28;20759;-71
2023/09/18 05:15:29;;;;;;;5.53;4.50;;;;;;;;;;5014102;28;20040;-70
2023/09/18 05:17:57;;;;;;;4.50;4.10;;;;;;;;;;5030743;28;20087;-71
2023/09/18 05:20:24;;;;;;;4.78;4.28;;;;;;;;;;5014171;28;20035;-71
2023/09/18 05:22:55;;;;;;;4.20;3.55;;;;;;;;;;5040565;28;20716;-70
2023/09/18 05:25:22;;;;;;;5.78;3.83;;;;;;;;;;5024756;28;20033;-71
2023/09/18 05:27:49;;;;;;;6.82;4.57;;;;;;;;;;5036329;28;20551;-70
2023/09/18 05:30:20;;;;;;;4.28;3.30;;;;;;;;;;5031136;28;20656;-71
2023/09/18 05:32:46;;;;;;;;;;;;;;;;;;5031692;28;20045;-71
2023/09/18 05:35:12;;;;;;;4.18;3.78;;;;;;;;;;5030897;28;19921;-71
2023/09/18 05:37:38;;;;;;;4.60;4.20;;;;;;;;;;5029493;28;20170;-71
2023/09/18 05:40:11;;;;;;;3.22;2.80;;;;;;;;;;5013816;28;20038;-71
2023/09/18 05:42:38;;;;;;;5.35;4.30;;;;;;;;;;5037224;28;20044;-71
2023/09/18 05:45:04;;;;;;;4.95;3.72;;;;;;;;;;5038579;28;20138;-71
2023/09/18 05:47:32;;;;;;;4.45;4.05;;;;;;;;;;5038121;28;20425;-71
2023/09/18 05:49:57;;;;;;;4.85;4.40;;;;;;;;;;5035401;28;20029;-71
2023/09/18 05:52:23;;;;;;;5.10;4.60;;;;;;;;;;5024990;28;20048;-71
2023/09/18 05:54:49;;;;;;;5.93;4.47;;;;;;;;;;5026300;28;20041;-71
2023/09/18 05:57:14;;;;;;;3.72;3.35;;;;;;;;;;5015432;28;20398;-71
2023/09/18 05:59:43;;;;;;;2.97;2.67;;;;;;;;;;5015418;28;20041;-71
2023/09/18 06:02:09;;;;;;;4.15;3.75;;;;;;;;;;5011901;28;20049;-71
2023/09/18 06:04:36;;;;;;;3.83;3.33;;;;;;;;;;5011754;28;20049;-71
2023/09/18 06:07:03;;;;;;;3.40;3.10;;;;;;;;;;5007354;28;20097;-71
2023/09/18 06:09:28;;;;;;;3.22;2.90;;;;;;;;;;5020278;28;20030;-71
2023/09/18 06:11:53;;;;;;;3.33;3.03;;;;;;;;;;5017451;28;20062;-71
2023/09/18 06:14:19;;;;;;;4.50;3.25;;;;;;;;;;5018294;28;20116;-71
2023/09/18 06:16:44;;;;;;;3.10;2.80;;;;;;;;;;5015994;28;20034;-71
2023/09/18 06:19:09;;;;;;;3.20;2.90;;;;;;;;;;5010960;28;20044;-70
2023/09/18 06:21:35;;;;;;;3.60;3.30;;;;;;;;;;5008832;28;20030;-71
2023/09/18 06:24:00;;;;;;;5.15;3.65;;;;;;;;;;5031909;28;20033;-71
2023/09/18 06:26:26;;;;;;;2.88;2.63;;;;;;;;;;5017979;28;20041;-71
2023/09/18 06:28:52;;;;;;;2.92;2.50;;;;;;;;;;5014010;28;20103;-71
2023/09/18 06:31:18;;;;;;;3.17;2.88;;;;;;;;;;5019306;28;20049;-71
2023/09/18 06:33:43;;;;;;;3.38;3.08;;;;;;;;;;5002824;28;20064;-71
2023/09/18 06:36:09;;;;;;;2.70;2.50;;;;;;;;;;5017313;28;20034;-70
2023/09/18 06:38:34;;;;;;;5.75;3.50;;;;;;;;;;5002033;28;20076;-70
2023/09/18 06:41:00;;;;;;;3.45;3.15;;;;;;;;;;5017475;28;20033;-71
2023/09/18 06:43:25;;;;;;;4.32;3.05;;;;;;;;;;5016117;28;20203;-71
2023/09/18 06:45:50;;;;;;;3.95;3.55;;;;;;;;;;4999695;28;20040;-71
2023/09/18 06:48:17;;;;;;;5.28;4.78;;;;;;;;;;4996793;28;20100;-71
2023/09/18 06:50:42;;;;;;;5.45;4.22;;;;;;;;;;5016704;28;20041;-71
2023/09/18 06:53:09;;;;;;;4.63;4.10;;;;;;;;;;5015052;28;20583;-71
2023/09/18 06:55:34;;;;;;;6.28;4.45;;;;;;;;;;5002250;28;20398;-71
2023/09/18 06:58:00;;;;;;;4.72;4.22;;;;;;;;;;5016944;28;20120;-71
2023/09/18 07:00:25;;;;;;;8.02;5.22;;;;;;;;;;5016342;28;20041;-71
2023/09/18 07:02:50;;;;;;;3.67;3.38;;;;;;;;;;5011770;28;20065;-71
2023/09/18 07:05:16;;;;;;;5.25;4.75;;;;;;;;;;5010377;28;20077;-71
2023/09/18 07:07:41;;;;;;;3.28;2.97;;;;;;;;;;5010859;28;20477;-71
2023/09/18 07:10:07;;;;;;;11.63;6.22;;;;;;;;;;5010897;28;20701;-71
2023/09/18 07:12:33;;;;;;;3.20;2.90;;;;;;;;;;4996613;28;20049;-71
2023/09/18 07:15:03;;;;;;;3.70;3.40;;;;;;;;;;5013690;28;20387;-71
2023/09/18 07:17:29;;;;;;;5.85;4.15;;;;;;;;;;5018834;28;20045;-71
2023/09/18 07:19:54;;;;;;;4.38;3.92;;;;;;;;;;5020008;28;20081;-71
2023/09/18 07:22:20;;;;;;;4.75;3.67;;;;;;;;;;5031295;28;20040;-71
2023/09/18 07:24:46;;;;;;;3.67;3.38;;;;;;;;;;5035806;28;20029;-71
2023/09/18 07:27:11;;;;;;;4.35;3.55;;;;;;;;;;5018862;28;20048;-71
2023/09/18 07:29:37;;;;;;;7.75;5.78;;;;;;;;;;5021446;28;20029;-71
2023/09/18 07:32:02;;;;;;;6.68;5.35;;;;;;;;;;4998366;28;20123;-71
2023/09/18 07:34:28;;;;;;;7.25;4.47;;;;;;;;;;5008001;28;20277;-71
2023/09/18 07:36:55;;;;;;;4.15;3.72;;;;;;;;;;5015288;28;20441;-71
2023/09/18 07:39:20;;;;;;;3.80;3.40;;;;;;;;;;5010331;28;20030;-71
2023/09/18 07:41:47;;;;;;;2.65;2.45;;;;;;;;;;5010901;28;20408;-71
2023/09/18 07:44:18;;;;;;;3.95;2.92;;;;;;;;;;5022256;28;20501;-71
2023/09/18 07:46:43;;;;;;;5.25;4.25;;;;;;;;;;5008168;28;20053;-71
2023/09/18 07:49:09;;;;;;;6.90;6.03;;;;;;;;;;5033937;28;20039;-71
2023/09/18 07:51:34;;;;;;;3.45;3.15;;;;;;;;;;5015643;28;20752;-71
2023/09/18 07:53:59;;;;;;;5.57;5.03;;;;;;;;;;5007515;28;20040;-71
2023/09/18 07:56:25;;;;;;;4.80;4.32;;;;;;;;;;5019539;28;20094;-71
2023/09/18 07:58:50;;;;;;;6.50;5.03;;;;;;;;;;5017656;28;20037;-71
2023/09/18 08:01:17;;;;;;;7.40;5.03;;;;;;;;;;5011059;28;20051;-70
2023/09/18 08:03:42;;;;;;;14.85;9.68;;;;;;;;;;5020026;28;20493;-71
2023/09/18 08:06:07;;;;;;;7.35;5.82;;;;;;;;;;5014026;28;20052;-71
2023/09/18 08:08:33;;;;;;;3.85;3.30;;;;;;;;;;5016746;28;20120;-71
2023/09/18 08:11:06;;;;;;;4.97;3.53;;;;;;;;;;5001195;28;20045;-71
2023/09/18 08:13:32;;;;;;;3.83;3.35;;;;;;;;;;5008819;28;20549;-71
2023/09/18 08:15:57;;;;;;;3.50;2.90;;;;;;;;;;5024739;28;20033;-71
2023/09/18 08:18:26;;;;;;;9.27;5.43;;;;;;;;;;5040541;28;20033;-70
2023/09/18 08:20:52;;;;;;;4.18;3.72;;;;;;;;;;5035434;28;20034;-71
2023/09/18 08:23:17;;;;;;;5.30;3.95;;;;;;;;;;5014768;28;20631;-71
2023/09/18 08:25:43;;;;;;;7.88;3.88;;;;;;;;;;5025861;28;20068;-71
2023/09/18 08:28:08;;;;;;;3.22;2.92;;;;;;;;;;5017955;28;20465;-71
2023/09/18 08:30:34;;;;;;;5.07;3.33;;;;;;;;;;5026201;28;20094;-71
2023/09/18 08:32:59;;;;;;;4.20;3.10;;;;;;;;;;5032996;28;20033;-71
2023/09/18 08:35:28;;;;;;;2.70;2.50;;;;;;;;;;5031068;28;20040;-71
2023/09/18 08:37:54;;;;;;;5.68;3.28;;;;;;;;;;5034608;28;20033;-71
2023/09/18 08:40:20;;;;;;;4.22;3.15;;;;;;;;;;5036920;28;20681;-71
2023/09/18 08:42:47;;;;;;;5.20;3.38;;;;;;;;;;5028865;28;20105;-71
2023/09/18 08:45:22;;;;;;;5.75;3.03;;;;;;;;;;5036301;28;20051;-70
2023/09/18 08:47:48;;;;;;;8.77;3.40;;;;;;;;;;5036274;28;20111;-71
2023/09/18 08:50:15;;;;;;;3.30;2.83;;;;;;;;;;5032964;28;20067;-71
2023/09/18 08:52:41;;;;;;;7.45;3.38;;;;;;;;;;5037386;28;20037;-71
2023/09/18 08:55:07;;;;;;;4.93;3.28;;;;;;;;;;5025171;28;20048;-71
2023/09/18 08:57:35;;;;;;;5.10;2.90;;;;;;;;;;5027933;28;20045;-71
2023/09/18 09:00:07;;;;;;;4.85;2.78;;;;;;;;;;5030089;28;20033;-71
2023/09/18 09:02:35;;;;;;;5.90;3.33;;;;;;;;;;5031561;28;20052;-71
2023/09/18 09:05:01;;;;;;;5.15;2.88;;;;;;;;;;5032653;28;20139;-71
2023/09/18 09:07:28;;;;;;;4.07;2.85;;;;;;;;;;5025021;28;20520;-71
2023/09/18 09:09:54;;;;;;;3.67;2.78;;;;;;;;;;5037889;28;20033;-71
2023/09/18 09:12:58;;;;;;;5.90;3.33;;;;;;;;;;5032402;28;20041;-71
2023/09/18 09:15:26;;;;;;;7.63;3.70;;;;;;;;;;5031240;28;20067;-71
2023/09/18 09:18:01;;;;;;;4.78;2.80;;;;;;;;;;5006670;28;20517;-71
2023/09/18 09:20:26;;;;;;;4.25;2.60;;;;;;;;;;5027070;28;20111;-71
2023/09/18 09:22:53;;;;;;;5.43;3.10;;;;;;;;;;5039514;28;20443;-71
2023/09/18 09:25:31;;;;;;;4.85;2.92;;;;;;;;;;5037712;28;20164;-71
2023/09/18 09:27:58;;;;;;;4.25;2.80;;;;;;;;;;5042915;28;20037;-71
2023/09/18 09:30:27;;;;;;;6.03;3.13;;;;;;;;;;5029929;28;20033;-71
2023/09/18 09:32:54;;;;;;;3.15;2.67;;;;;;;;;;5035119;28;20049;-71
2023/09/18 09:35:31;;;;;;;5.80;2.38;;;;;;;;;;5028478;28;20072;-71
2023/09/18 09:37:58;;;;;;;2.97;2.60;;;;;;;;;;5032526;28;20037;-71
2023/09/18 09:40:25;;;;;;;6.75;2.63;;;;;;;;;;5037270;28;20078;-71
2023/09/18 09:42:53;;;;;;;6.65;2.75;;;;;;;;;;5027560;28;20051;-71
2023/09/18 09:45:19;;;;;;;7.47;2.90;;;;;;;;;;5035306;28;20036;-71
2023/09/18 09:47:45;;;;;;;6.53;2.65;;;;;;;;;;5033137;28;20051;-71
2023/09/18 09:50:19;;;;;;;4.90;2.47;;;;;;;;;;5028252;28;20041;-71
2023/09/18 09:52:48;;;;;;;3.83;2.70;;;;;;;;;;5037147;28;20041;-71
2023/09/18 09:55:24;;;;;;;5.55;2.63;;;;;;;;;;5023241;28;20044;-71
2023/09/18 09:57:59;;;;;;;4.22;2.38;;;;;;;;;;5027753;28;20037;-71
2023/09/18 10:00:31;;;;;;;4.63;2.53;;;;;;;;;;5021719;28;20460;-71
2023/09/18 10:02:59;;;;;;;4.75;2.90;;;;;;;;;;5015368;28;20564;-71
2023/09/18 10:05:28;;;;;;;6.53;2.60;;;;;;;;;;5013475;28;20041;-71
2023/09/18 10:07:58;;;;;;;4.57;2.42;;;;;;;;;;5005891;28;20048;-71
2023/09/18 10:10:26;;;;;;;6.00;3.00;;;;;;;;;;5021936;28;20124;-71
2023/09/18 10:12:53;;;;;;;3.45;2.63;;;;;;;;;;5017630;28;20041;-71
2023/09/18 10:15:19;;;;;;;6.88;3.33;;;;;;;;;;5018353;28;20124;-72
2023/09/18 10:17:49;;;;;;;5.25;2.63;;;;;;;;;;5018585;28;20045;-71
2023/09/18 10:20:20;;;;;;;5.90;2.50;;;;;;;;;;5005899;28;20036;-73
2023/09/18 10:22:49;;;;;;;4.00;2.40;;;;;;;;;;5021271;28;20119;-72
2023/09/18 10:25:20;;;;;;;4.20;2.28;;;;;;;;;;5022904;28;20041;-71
2023/09/18 10:27:49;;;;;;;;;;;;;;;;;;5029838;28;20541;-71
2023/09/18 10:30:18;;;;;;;3.30;1.83;;;;;;;;;;5019552;28;20282;-71
2023/09/18 10:32:48;;;;;;;6.53;1.60;;;;;;;;;;5013589;28;20049;-72
2023/09/18 10:35:14;;;;;;;2.88;1.52;;;;;;;;;;5015213;28;20069;-71
2023/09/18 10:37:42;;;;;;;3.80;2.00;;;;;;;;;;5016658;28;20076;-71
2023/09/18 10:40:11;;;;;;;4.03;1.40;;;;;;;;;;5022801;28;20029;-71
2023/09/18 10:42:41;;;;;;;5.10;1.33;;;;;;;;;;5017785;28;20065;-71
2023/09/18 10:45:10;;;;;;;;;;;;;;;;;;5023104;28;20037;-71
2023/09/18 10:47:40;;;;;;;3.67;1.85;;;;;;;;;;5008076;28;19929;-71
2023/09/18 10:50:07;;;;;;;2.90;1.52;;;;;;;;;;5016134;28;20553;-71
2023/09/18 10:52:34;;;;;;;3.67;1.55;;;;;;;;;;5021960;28;20053;-71
2023/09/18 10:55:02;;;;;;;9.27;1.60;;;;;;;;;;5030057;28;20108;-71
2023/09/18 10:57:27;;;;;;;1.75;1.60;;;;;;;;;;5030755;28;20108;-71
2023/09/18 10:59:54;;;;;;;6.80;1.95;;;;;;;;;;5007232;28;20120;-72
2023/09/18 11:02:21;;;;;;;1.92;1.40;;;;;;;;;;5029144;28;20033;-71
2023/09/18 11:04:47;;;;;;;4.60;1.40;;;;;;;;;;5018123;28;20076;-71
2023/09/18 11:07:20;;;;;;;1.50;1.20;;;;;;;;;;5013526;28;20045;-71
2023/09/18 11:09:46;;;;;;;2.80;1.50;;;;;;;;;;5011534;28;20087;-71
2023/09/18 11:12:16;;;;;;;4.68;1.40;;;;;;;;;;5013996;28;20045;-71
2023/09/18 11:15:00;;;;;;;5.88;1.40;;;;;;;;;;4991040;28;20053;-71
2023/09/18 11:17:33;;;;;;;4.18;1.38;;;;;;;;;;5030407;28;20067;-71
2023/09/18 11:20:04;;;;;;;4.75;1.30;;;;;;;;;;5029103;28;20037;-71
2023/09/18 11:22:30;;;;;;;3.08;1.50;;;;;;;;;;5031237;28;20037;-71
2023/09/18 11:25:43;;;;;;;3.17;1.60;;;;;;;;;;5025769;28;20082;-72
2023/09/18 11:28:16;;;;;;;1.40;1.30;;;;;;;;;;5034140;28;20533;-71
2023/09/18 11:31:02;;;;;;;2.88;1.20;;;;;;;;;;5030778;28;20155;-71
2023/09/18 11:33:31;;;;;;;3.47;1.10;;;;;;;;;;5004500;28;20158;-72
2023/09/18 11:35:57;;;;;;;2.25;1.20;;;;;;;;;;5012219;28;20048;-71
2023/09/18 11:38:23;;;;;;;9.60;1.70;;;;;;;;;;5019504;28;20029;-72
2023/09/18 11:40:49;;;;;;;2.90;1.38;;;;;;;;;;5009493;28;20044;-72
2023/09/18 11:43:29;;;;;;;3.35;1.17;;;;;;;;;;5014161;28;20040;-73
2023/09/18 11:45:59;;;;;;;4.93;1.30;;;;;;;;;;5007907;28;20392;-73
2023/09/18 11:48:29;;;;;;;2.87;1.37;;;;;;;;;;5018117;28;20548;-73
2023/09/18 11:50:57;;;;;;;3.50;1.87;;;;;;;;;;5010283;28;20069;-72
2023/09/18 11:53:24;;;;;;;3.05;1.33;;;;;;;;;;5005527;28;20039;-73
2023/09/18 11:55:50;;;;;;;2.15;1.10;;;;;;;;;;5008605;28;20037;-72
2023/09/18 11:58:15;;;;;;;3.67;1.50;;;;;;;;;;5002684;28;20582;-73
2023/09/18 12:00:47;;;;;;;4.90;1.17;;;;;;;;;;5016708;28;20073;-72
2023/09/18 12:03:24;;;;;;;3.30;1.15;;;;;;;;;;5020656;28;20041;-72
2023/09/18 12:05:59;;;;;;;3.60;1.30;;;;;;;;;;5005293;28;20499;-72
2023/09/18 12:08:30;;;;;;;3.13;1.08;;;;;;;;;;5010930;28;20526;-72
2023/09/18 12:10:55;;;;;;;3.63;1.20;;;;;;;;;;5013201;28;20149;-72
2023/09/18 12:13:22;;;;;;;2.38;1.00;;;;;;;;;;5019161;28;20128;-72
2023/09/18 12:15:49;;;;;;;5.22;1.30;;;;;;;;;;5018336;28;20632;-72
2023/09/18 12:18:15;;;;;;;3.95;1.20;;;;;;;;;;5014934;28;20109;-72
2023/09/18 12:20:48;;;;;;;3.40;1.25;;;;;;;;;;4997573;28;20715;-72
2023/09/18 12:23:14;;;;;;;4.75;1.63;;;;;;;;;;5004007;28;20042;-72
2023/09/18 12:25:40;;;;;;;4.63;1.38;;;;;;;;;;5019846;28;20033;-72
2023/09/18 12:28:07;;;;;;;2.58;1.25;;;;;;;;;;5028297;28;20110;-72
2023/09/18 12:30:34;;;;;;;4.97;1.48;;;;;;;;;;5010533;28;20037;-72
2023/09/18 12:33:05;;;;;;;5.80;1.50;;;;;;;;;;5021013;28;20067;-72
2023/09/18 12:35:31;;;;;;;2.40;1.30;;;;;;;;;;5003639;28;20040;-73
2023/09/18 12:37:59;;;;;;;5.68;1.60;;;;;;;;;;5020132;28;20037;-72
2023/09/18 12:40:30;;;;;;;1.55;1.33;;;;;;;;;;5025537;28;20595;-72
2023/09/18 12:42:59;;;;;;;;;;;;;;;;;;5018744;28;20129;-72
2023/09/18 12:45:25;;;;;;;2.85;1.17;;;;;;;;;;5015512;28;20000;-72
2023/09/18 12:47:52;;;;;;;2.75;1.10;;;;;;;;;;5018498;28;20128;-72
2023/09/18 12:50:17;;;;;;;4.70;1.50;;;;;;;;;;5010104;28;20060;-72
2023/09/18 12:52:44;;;;;;;3.83;1.08;;;;;;;;;;5026470;28;20065;-72
2023/09/18 12:55:27;;;;;;;4.13;1.30;;;;;;;;;;5007877;28;20033;-72
2023/09/18 12:57:55;;;;;;;3.58;1.30;;;;;;;;;;5025999;28;20452;-72
2023/09/18 13:00:22;;;;;;;3.13;1.40;;;;;;;;;;5005730;28;20067;-72
2023/09/18 13:02:57;;;;;;;3.28;1.30;;;;;;;;;;5008203;28;20099;-72
2023/09/18 13:05:26;;;;;;;3.75;1.17;;;;;;;;;;5031664;28;20822;-72
2023/09/18 13:07:54;;;;;;;3.25;1.33;;;;;;;;;;5015444;28;20037;-72
2023/09/18 13:10:21;;;;;;;2.90;1.17;;;;;;;;;;5013313;28;20053;-72
2023/09/18 13:12:52;;;;;;;7.35;1.98;;;;;;;;;;5011242;28;20038;-72
2023/09/18 13:15:27;;;;;;;;;;;;;;;;;;5007162;28;20383;-72
2023/09/18 13:17:53;;;;;;;3.60;1.40;;;;;;;;;;5025486;28;19917;-72
2023/09/18 13:20:24;;;;;;;2.35;1.02;;;;;;;;;;5011541;28;20116;-72
2023/09/18 13:22:51;;;;;;;6.60;1.65;;;;;;;;;;5007318;28;20087;-72
2023/09/18 13:25:23;;;;;;;5.85;1.60;;;;;;;;;;5030438;28;20048;-72
2023/09/18 13:27:50;;;;;;;5.68;1.50;;;;;;;;;;5003819;28;20043;-72
2023/09/18 13:30:17;;;;;;;4.32;1.50;;;;;;;;;;5031760;28;20039;-72
2023/09/18 13:32:44;;;;;;;1.85;1.15;;;;;;;;;;5034454;28;20045;-72
2023/09/18 13:35:11;;;;;;;3.97;1.50;;;;;;;;;;5038064;28;20056;-72
2023/09/18 13:37:38;;;;;;;1.88;1.20;;;;;;;;;;5024575;28;20099;-72
2023/09/18 13:40:07;;;;;;;4.90;1.60;;;;;;;;;;5017532;28;20033;-72
2023/09/18 13:42:33;;;;;;;5.82;1.50;;;;;;;;;;5023698;28;20267;-72
2023/09/18 13:45:01;;;;;;;2.65;1.20;;;;;;;;;;5028774;28;20101;-72
2023/09/18 13:47:28;;;;;;;2.55;1.27;;;;;;;;;;5030532;28;20456;-72
2023/09/18 13:49:56;;;;;;;3.25;1.52;;;;;;;;;;5027475;28;20040;-72
2023/09/18 13:52:23;;;;;;;1.92;1.30;;;;;;;;;;5025679;28;20037;-71
2023/09/18 13:54:51;;;;;;;5.32;1.15;;;;;;;;;;4966568;28;20046;-72
2023/09/18 13:57:18;;;;;;;4.45;1.65;;;;;;;;;;5008462;28;20138;-72
2023/09/18 13:59:48;;;;;;;4.35;1.48;;;;;;;;;;5018481;28;20461;-72
2023/09/18 14:02:14;;;;;;;3.45;1.15;;;;;;;;;;5020254;28;20041;-72
2023/09/18 14:04:39;;;;;;;1.52;1.08;;;;;;;;;;5009578;28;20033;-72
2023/09/18 14:07:06;;;;;;;3.65;1.70;;;;;;;;;;5011176;28;20438;-72
2023/09/18 14:09:31;;;;;;;3.92;1.52;;;;;;;;;;5021555;28;20947;-72
2023/09/18 14:11:57;;;;;;;4.65;1.40;;;;;;;;;;5024406;28;20057;-72
2023/09/18 14:14:23;;;;;;;2.05;0.93;;;;;;;;;;5010251;28;20037;-72
2023/09/18 14:16:50;;;;;;;4.25;1.50;;;;;;;;;;5012004;28;20132;-72
2023/09/18 14:19:16;;;;;;;4.05;1.50;;;;;;;;;;5007411;28;20061;-72
2023/09/18 14:21:41;;;;;;;2.10;1.13;;;;;;;;;;4999081;28;20084;-72
2023/09/18 14:24:07;;;;;;;2.95;1.25;;;;;;;;;;5006202;28;20498;-72
2023/09/18 14:26:34;;;;;;;6.55;1.65;;;;;;;;;;5009972;28;20033;-72
2023/09/18 14:29:01;;;;;;;1.55;1.23;;;;;;;;;;5030779;28;20037;-72
2023/09/18 14:31:27;;;;;;;1.27;0.93;;;;;;;;;;5029194;28;20036;-72
2023/09/18 14:33:52;;;;;;;4.80;1.40;;;;;;;;;;5029166;28;20460;-72
2023/09/18 14:36:17;;;;;;;1.75;1.10;;;;;;;;;;5023081;28;20029;-72
2023/09/18 14:38:43;;;;;;;1.08;0.85;;;;;;;;;;5019572;28;20044;-72
2023/09/18 14:41:09;;;;;;;2.28;1.10;;;;;;;;;;5025400;28;20505;-72
2023/09/18 14:43:34;;;;;;;3.08;1.27;;;;;;;;;;5038328;28;20035;-72
2023/09/18 14:46:00;;;;;;;3.45;1.40;;;;;;;;;;5039559;28;20119;-72